createdAt,value
2023-01-15T00:01:07.017Z,9.90
2023-01-15T00:03:33.969Z,9.90
2023-01-15T00:06:06.442Z,9.90
2023-01-15T00:08:33.374Z,9.90
2023-01-15T00:11:03.256Z,9.80
2023-01-15T00:13:30.225Z,9.80
2023-01-15T00:16:04.462Z,9.90
2023-01-15T00:18:31.682Z,9.80
2023-01-15T00:20:59.246Z,9.80
2023-01-15T00:23:44.652Z,9.80
2023-01-15T00:26:36.612Z,9.80
2023-01-15T00:29:04.035Z,9.80
2023-01-15T00:31:31.554Z,9.80
2023-01-15T00:33:58.642Z,9.80
2023-01-15T00:36:26.101Z,9.80
2023-01-15T00:38:53.348Z,9.80
2023-01-15T00:41:20.497Z,9.80
2023-01-15T00:43:47.384Z,9.70
2023-01-15T00:46:14.432Z,9.80
2023-01-15T00:48:41.441Z,9.80
2023-01-15T00:51:08.279Z,9.80
2023-01-15T00:53:35.219Z,9.70
2023-01-15T00:56:02.130Z,9.70
2023-01-15T00:58:29.389Z,9.70
2023-01-15T01:01:01.366Z,9.70
2023-01-15T01:03:29.055Z,9.80
2023-01-15T01:05:59.949Z,9.70
2023-01-15T01:08:26.894Z,9.70
2023-01-15T01:11:07.090Z,9.70
2023-01-15T01:13:34.209Z,9.70
2023-01-15T01:16:01.178Z,9.70
2023-01-15T01:18:28.497Z,9.70
2023-01-15T01:20:55.645Z,9.70
2023-01-15T01:23:23.423Z,9.70
2023-01-15T01:25:50.425Z,9.70
2023-01-15T01:28:17.343Z,9.70
2023-01-15T01:30:44.578Z,9.70
2023-01-15T01:33:11.498Z,9.60
2023-01-15T01:35:38.427Z,9.70
2023-01-15T01:38:05.387Z,9.70
2023-01-15T01:40:32.252Z,9.70
2023-01-15T01:42:59.177Z,9.70
2023-01-15T01:45:27.360Z,9.60
2023-01-15T01:47:56.438Z,9.70
2023-01-15T01:50:23.618Z,9.60
2023-01-15T01:52:56.455Z,9.60
2023-01-15T01:55:24.123Z,9.60
2023-01-15T01:57:52.191Z,9.60
2023-01-15T02:00:20.011Z,9.70
2023-01-15T02:02:47.912Z,9.70
2023-01-15T02:05:16.619Z,9.60
2023-01-15T02:07:43.588Z,9.60
2023-01-15T02:10:14.392Z,9.60
2023-01-15T02:12:42.774Z,9.60
2023-01-15T02:15:09.915Z,9.60
2023-01-15T02:17:44.439Z,9.60
2023-01-15T02:20:24.281Z,9.50
2023-01-15T02:22:51.238Z,9.60
2023-01-15T02:25:36.337Z,9.60
2023-01-15T02:28:21.879Z,9.50
2023-01-15T02:30:52.715Z,9.50
2023-01-15T02:33:26.727Z,9.50
2023-01-15T02:36:06.688Z,9.50
2023-01-15T02:38:36.492Z,9.50
2023-01-15T02:41:04.147Z,9.40
2023-01-15T02:43:34.063Z,9.40
2023-01-15T02:46:02.494Z,9.40
2023-01-15T02:48:30.310Z,9.40
2023-01-15T02:51:18.098Z,9.40
2023-01-15T02:53:47.156Z,9.40
2023-01-15T02:56:16.248Z,9.30
2023-01-15T02:58:44.410Z,9.40
2023-01-15T03:01:18.493Z,9.30
2023-01-15T03:03:52.322Z,9.30
2023-01-15T03:06:27.962Z,9.40
2023-01-15T03:08:55.029Z,9.40
2023-01-15T03:11:22.195Z,9.30
2023-01-15T03:13:55.152Z,9.40
2023-01-15T03:16:40.150Z,9.40
2023-01-15T03:19:18.265Z,9.40
2023-01-15T03:21:51.617Z,9.40
2023-01-15T03:24:21.560Z,9.40
2023-01-15T03:26:48.630Z,9.40
2023-01-15T03:29:16.023Z,9.40
2023-01-15T03:31:45.041Z,9.40
2023-01-15T03:34:12.475Z,9.40
2023-01-15T03:36:39.473Z,9.40
2023-01-15T03:39:06.567Z,9.40
2023-01-15T03:41:46.547Z,9.30
2023-01-15T03:44:25.442Z,9.40
2023-01-15T03:47:10.875Z,9.30
2023-01-15T03:49:56.227Z,9.40
2023-01-15T03:52:35.452Z,9.30
2023-01-15T03:55:09.306Z,9.30
2023-01-15T03:57:42.099Z,9.30
2023-01-15T04:00:15.552Z,9.30
2023-01-15T04:02:46.446Z,9.30
2023-01-15T04:05:14.110Z,9.30
2023-01-15T04:07:41.054Z,9.30
2023-01-15T04:10:09.370Z,9.30
2023-01-15T04:12:36.249Z,9.20
2023-01-15T04:15:03.490Z,9.20
2023-01-15T04:17:31.489Z,9.20
2023-01-15T04:19:58.343Z,9.20
2023-01-15T04:22:25.281Z,9.20
2023-01-15T04:24:52.250Z,9.20
2023-01-15T04:27:19.174Z,9.20
2023-01-15T04:29:46.217Z,9.10
2023-01-15T04:32:13.075Z,9.10
2023-01-15T04:34:40.000Z,9.10
2023-01-15T04:37:07.353Z,9.10
2023-01-15T04:39:34.239Z,9.10
2023-01-15T04:42:36.672Z,9.10
2023-01-15T04:45:03.654Z,9.10
2023-01-15T04:47:34.355Z,9.10
2023-01-15T04:50:01.309Z,9.10
2023-01-15T04:52:28.263Z,9.10
2023-01-15T04:54:55.942Z,9.00
2023-01-15T04:57:22.958Z,9.10
2023-01-15T04:59:50.036Z,9.10
2023-01-15T05:02:18.173Z,9.00
2023-01-15T05:04:45.183Z,9.10
2023-01-15T05:07:12.281Z,9.00
2023-01-15T05:09:39.211Z,9.00
2023-01-15T05:12:06.464Z,9.00
2023-01-15T05:14:33.409Z,9.00
2023-01-15T05:17:00.491Z,9.00
2023-01-15T05:19:27.522Z,9.00
2023-01-15T05:21:54.761Z,9.00
2023-01-15T05:24:21.813Z,8.90
2023-01-15T05:26:48.758Z,8.90
2023-01-15T05:29:18.759Z,8.90
2023-01-15T05:31:46.095Z,8.90
2023-01-15T05:34:13.380Z,8.90
2023-01-15T05:36:40.626Z,8.90
2023-01-15T05:39:07.979Z,8.90
2023-01-15T05:41:50.534Z,8.90
2023-01-15T05:44:22.453Z,8.80
2023-01-15T05:46:50.235Z,8.80
2023-01-15T05:49:19.950Z,8.80
2023-01-15T05:51:47.369Z,8.80
2023-01-15T05:54:15.958Z,8.80
2023-01-15T05:56:43.310Z,8.80
2023-01-15T05:59:10.343Z,8.80
2023-01-15T06:01:37.448Z,8.80
2023-01-15T06:04:05.812Z,8.80
2023-01-15T06:06:33.371Z,8.80
2023-01-15T06:09:00.488Z,8.80
2023-01-15T06:11:27.628Z,8.80
2023-01-15T06:13:54.576Z,8.80
2023-01-15T06:16:21.898Z,8.70
2023-01-15T06:18:49.406Z,8.70
2023-01-15T06:21:16.510Z,8.70
2023-01-15T06:23:43.993Z,8.70
2023-01-15T06:26:12.362Z,8.70
2023-01-15T06:28:39.427Z,8.70
2023-01-15T06:31:07.213Z,8.70
2023-01-15T06:33:34.159Z,8.60
2023-01-15T06:36:13.907Z,8.60
2023-01-15T06:38:41.133Z,8.60
2023-01-15T06:41:30.513Z,8.60
2023-01-15T06:44:15.981Z,8.60
2023-01-15T06:47:03.293Z,8.60
2023-01-15T06:49:30.577Z,8.50
2023-01-15T06:51:59.573Z,8.50
2023-01-15T06:54:27.986Z,8.50
2023-01-15T06:56:55.099Z,8.40
2023-01-15T06:59:22.022Z,8.40
2023-01-15T07:01:49.045Z,8.40
2023-01-15T07:04:16.491Z,8.30
2023-01-15T07:06:43.524Z,8.30
2023-01-15T07:09:10.575Z,8.20
2023-01-15T07:11:49.864Z,8.20
2023-01-15T07:14:21.339Z,8.20
2023-01-15T07:16:48.203Z,8.20
2023-01-15T07:19:15.533Z,8.20
2023-01-15T07:21:42.538Z,8.10
2023-01-15T07:24:10.885Z,8.10
2023-01-15T07:26:38.205Z,8.00
2023-01-15T07:29:06.034Z,8.00
2023-01-15T07:31:33.348Z,8.00
2023-01-15T07:34:00.359Z,7.90
2023-01-15T07:36:27.395Z,7.90
2023-01-15T07:38:54.322Z,7.90
2023-01-15T07:41:40.282Z,7.90
2023-01-15T07:44:28.106Z,7.90
2023-01-15T07:47:13.523Z,7.80
2023-01-15T07:49:51.160Z,7.80
2023-01-15T07:52:19.324Z,7.80
2023-01-15T07:54:46.645Z,7.80
2023-01-15T07:57:17.505Z,7.80
2023-01-15T07:59:44.694Z,7.80
2023-01-15T08:02:12.262Z,7.70
2023-01-15T08:04:41.923Z,7.70
2023-01-15T08:07:09.525Z,7.70
2023-01-15T08:09:36.616Z,7.70
2023-01-15T08:12:22.328Z,7.70
2023-01-15T08:15:07.868Z,7.70
2023-01-15T08:17:35.317Z,7.70
2023-01-15T08:20:03.638Z,7.70
2023-01-15T08:22:30.602Z,7.70
2023-01-15T08:24:57.825Z,7.70
2023-01-15T08:27:25.058Z,7.70
2023-01-15T08:29:52.352Z,7.70
2023-01-15T08:32:19.212Z,7.80
2023-01-15T08:34:46.088Z,7.80
2023-01-15T08:37:12.950Z,7.80
2023-01-15T08:39:39.968Z,7.90
2023-01-15T08:42:07.237Z,7.90
2023-01-15T08:44:34.194Z,7.90
2023-01-15T08:47:01.213Z,7.90
2023-01-15T08:49:28.363Z,7.90
2023-01-15T08:51:55.301Z,7.90
2023-01-15T08:54:24.661Z,7.90
2023-01-15T08:56:51.548Z,7.80
2023-01-15T08:59:21.504Z,7.80
2023-01-15T09:01:48.723Z,7.80
2023-01-15T09:04:17.307Z,7.80
2023-01-15T09:06:44.929Z,7.80
2023-01-15T09:09:12.193Z,7.90
2023-01-15T09:11:45.221Z,7.80
2023-01-15T09:15:00.275Z,7.90
2023-01-15T09:17:00.846Z,7.90
2023-01-15T09:19:33.025Z,7.90
2023-01-15T09:21:59.905Z,8.00
2023-01-15T09:24:27.013Z,8.10
2023-01-15T09:26:54.117Z,8.20
2023-01-15T09:29:21.059Z,8.20
2023-01-15T09:31:48.294Z,8.30
2023-01-15T09:34:15.165Z,8.40
2023-01-15T09:36:42.241Z,8.40
2023-01-15T09:39:09.282Z,8.50
2023-01-15T09:42:00.829Z,8.60
2023-01-15T09:44:33.149Z,8.70
2023-01-15T09:47:06.460Z,8.70
2023-01-15T09:50:02.454Z,8.70
2023-01-15T09:52:32.051Z,8.70
2023-01-15T09:55:01.664Z,8.60
2023-01-15T09:57:28.858Z,8.40
2023-01-15T10:00:02.162Z,8.40
2023-01-15T10:02:40.051Z,8.40
2023-01-15T10:05:09.576Z,8.40
2023-01-15T10:07:45.512Z,8.40
2023-01-15T10:10:16.814Z,8.50
2023-01-15T10:12:45.742Z,8.50
2023-01-15T10:15:35.417Z,8.50
2023-01-15T10:18:02.422Z,8.50
2023-01-15T10:20:41.412Z,8.50
2023-01-15T10:23:10.927Z,8.40
2023-01-15T10:25:46.808Z,8.40
2023-01-15T10:28:33.930Z,8.40
2023-01-15T10:31:06.473Z,8.30
2023-01-15T10:33:36.209Z,8.30
2023-01-15T10:36:23.310Z,8.30
2023-01-15T10:38:56.546Z,8.20
2023-01-15T10:41:33.219Z,8.30
2023-01-15T10:44:03.814Z,8.40
2023-01-15T10:46:33.938Z,8.40
2023-01-15T10:49:04.077Z,8.40
2023-01-15T10:51:35.145Z,8.50
2023-01-15T10:54:04.958Z,8.50
2023-01-15T10:56:41.755Z,8.50
2023-01-15T10:59:15.745Z,8.60
2023-01-15T11:01:42.799Z,8.60
2023-01-15T11:04:13.515Z,8.60
2023-01-15T11:06:40.563Z,8.60
2023-01-15T11:09:10.961Z,8.60
2023-01-15T11:12:01.374Z,8.60
2023-01-15T11:14:59.110Z,8.60
2023-01-15T11:17:50.000Z,8.60
2023-01-15T11:20:17.082Z,8.60
2023-01-15T11:22:45.003Z,8.70
2023-01-15T11:25:12.124Z,8.80
2023-01-15T11:27:39.388Z,8.80
2023-01-15T11:30:07.312Z,8.90
2023-01-15T11:32:35.437Z,8.80
2023-01-15T11:35:08.524Z,8.80
2023-01-15T11:37:35.435Z,8.80
2023-01-15T11:40:07.211Z,8.70
2023-01-15T11:42:55.580Z,8.70
2023-01-15T11:45:41.631Z,8.60
2023-01-15T11:48:38.038Z,8.60
2023-01-15T11:51:12.441Z,8.60
2023-01-15T11:56:45.079Z,8.60
2023-01-15T11:59:13.662Z,8.70
2023-01-15T12:01:50.430Z,8.70
2023-01-15T12:04:26.721Z,8.80
2023-01-15T12:06:53.814Z,8.70
2023-01-15T12:09:39.128Z,8.70
2023-01-15T12:12:08.879Z,8.80
2023-01-15T12:14:59.041Z,8.80
2023-01-15T12:17:35.209Z,8.80
2023-01-15T12:20:02.950Z,8.70
2023-01-15T12:22:48.524Z,8.80
2023-01-15T12:25:20.483Z,8.80
2023-01-15T12:28:08.077Z,8.80
2023-01-15T12:30:47.856Z,8.80
2023-01-15T12:33:14.816Z,8.90
2023-01-15T12:35:44.205Z,8.90
2023-01-15T12:38:18.611Z,9.00
2023-01-15T12:40:51.998Z,8.90
2023-01-15T12:43:42.960Z,8.90
2023-01-15T12:46:18.074Z,8.90
2023-01-15T12:48:57.090Z,8.80
2023-01-15T12:51:28.859Z,8.90
2023-01-15T12:54:14.944Z,8.90
2023-01-15T12:56:44.592Z,8.80
2023-01-15T12:59:25.620Z,8.80
2023-01-15T13:01:59.177Z,8.80
2023-01-15T13:04:48.839Z,8.90
2023-01-15T13:07:15.756Z,8.80
2023-01-15T13:09:48.741Z,8.80
2023-01-15T13:12:16.499Z,8.80
2023-01-15T13:14:46.427Z,8.90
2023-01-15T13:17:19.692Z,8.90
2023-01-15T13:20:11.628Z,8.90
2023-01-15T13:22:43.325Z,8.90
2023-01-15T13:25:19.342Z,8.90
2023-01-15T13:27:57.856Z,8.90
2023-01-15T13:30:34.320Z,8.90
2023-01-15T13:33:13.654Z,8.90
2023-01-15T13:35:47.260Z,8.90
2023-01-15T13:38:19.837Z,9.00
2023-01-15T13:40:50.518Z,8.90
2023-01-15T13:43:36.262Z,8.90
2023-01-15T13:46:04.249Z,8.90
2023-01-15T13:48:58.100Z,8.90
2023-01-15T13:51:27.713Z,8.90
2023-01-15T13:53:55.463Z,8.90
2023-01-15T13:56:26.612Z,9.00
2023-01-15T13:58:55.012Z,9.00
2023-01-15T14:01:24.263Z,9.00
2023-01-15T14:04:02.883Z,9.00
2023-01-15T14:06:56.177Z,8.90
2023-01-15T14:09:23.085Z,8.90
2023-01-15T14:12:02.365Z,8.80
2023-01-15T14:14:48.470Z,8.80
2023-01-15T14:17:19.669Z,8.70
2023-01-15T14:20:05.260Z,8.90
2023-01-15T14:23:07.917Z,9.00
2023-01-15T14:25:40.718Z,9.10
2023-01-15T14:28:27.790Z,9.10
2023-01-15T14:30:56.786Z,9.10
2023-01-15T14:33:35.800Z,9.20
2023-01-15T14:36:16.694Z,9.10
2023-01-15T14:38:51.630Z,9.10
2023-01-15T14:41:30.332Z,9.20
2023-01-15T14:43:58.500Z,9.10
2023-01-15T14:46:41.961Z,9.10
2023-01-15T14:49:28.767Z,9.10
2023-01-15T14:51:55.844Z,9.10
2023-01-15T14:54:25.239Z,9.10
2023-01-15T14:56:55.464Z,9.00
2023-01-15T14:59:28.491Z,9.00
2023-01-15T15:01:58.380Z,9.00
2023-01-15T15:04:28.430Z,9.00
2023-01-15T15:06:57.451Z,8.90
2023-01-15T15:09:30.597Z,8.90
2023-01-15T15:12:19.834Z,8.90
2023-01-15T15:15:01.877Z,8.90
2023-01-15T15:17:43.405Z,8.90
2023-01-15T15:20:24.845Z,8.90
2023-01-15T15:22:55.020Z,8.80
2023-01-15T15:25:23.898Z,8.80
2023-01-15T15:28:01.232Z,8.80
2023-01-15T15:30:29.240Z,8.80
2023-01-15T15:32:57.121Z,8.80
2023-01-15T15:35:24.008Z,8.70
2023-01-15T15:37:51.252Z,8.70
2023-01-15T15:40:19.707Z,8.70
2023-01-15T15:43:08.602Z,8.70
2023-01-15T15:45:54.621Z,8.60
2023-01-15T15:48:41.500Z,8.60
2023-01-15T15:51:27.049Z,8.60
2023-01-15T15:54:06.221Z,8.60
2023-01-15T15:56:33.868Z,8.60
2023-01-15T15:59:00.773Z,8.50
2023-01-15T16:01:27.848Z,8.50
2023-01-15T16:03:55.285Z,8.50
2023-01-15T16:06:24.172Z,8.50
2023-01-15T16:09:01.661Z,8.50
2023-01-15T16:11:28.918Z,8.50
2023-01-15T16:13:56.622Z,8.50
2023-01-15T16:16:25.983Z,8.50
2023-01-15T16:19:03.728Z,8.40
2023-01-15T16:21:30.816Z,8.40
2023-01-15T16:23:58.837Z,8.30
2023-01-15T16:26:34.440Z,8.40
2023-01-15T16:29:03.543Z,8.30
2023-01-15T16:31:35.294Z,8.20
2023-01-15T16:34:02.807Z,8.20
2023-01-15T16:36:37.593Z,8.20
2023-01-15T16:39:05.450Z,8.20
2023-01-15T16:41:35.497Z,8.20
2023-01-15T16:44:03.982Z,8.20
2023-01-15T16:46:32.071Z,8.20
2023-01-15T16:49:17.998Z,8.10
2023-01-15T16:51:45.175Z,8.00
2023-01-15T16:54:30.442Z,8.00
2023-01-15T16:57:00.376Z,8.00
2023-01-15T16:59:27.283Z,8.00
2023-01-15T17:02:00.785Z,8.00
2023-01-15T17:04:29.874Z,8.00
2023-01-15T17:07:00.098Z,7.90
2023-01-15T17:09:27.607Z,7.90
2023-01-15T17:11:54.695Z,7.90
2023-01-15T17:14:23.080Z,7.90
2023-01-15T17:17:09.913Z,7.80
2023-01-15T17:19:36.834Z,7.80
2023-01-15T17:22:03.747Z,7.80
2023-01-15T17:24:30.647Z,7.80
2023-01-15T17:26:57.631Z,7.80
2023-01-15T17:29:24.560Z,7.80
2023-01-15T17:31:51.375Z,7.80
2023-01-15T17:34:23.616Z,7.70
2023-01-15T17:36:50.553Z,7.70
2023-01-15T17:39:19.690Z,7.70
2023-01-15T17:41:47.306Z,7.70
2023-01-15T17:44:14.424Z,7.70
2023-01-15T17:46:41.377Z,7.70
2023-01-15T17:49:08.268Z,7.70
2023-01-15T17:51:35.139Z,7.60
2023-01-15T17:54:02.044Z,7.70
2023-01-15T17:56:47.660Z,7.60
2023-01-15T17:59:33.030Z,7.60
2023-01-15T18:02:18.438Z,7.60
2023-01-15T18:05:06.758Z,7.60
2023-01-15T18:07:37.775Z,7.60
2023-01-15T18:10:05.048Z,7.60
2023-01-15T18:12:31.995Z,7.60
2023-01-15T18:14:59.241Z,7.70
2023-01-15T18:17:32.564Z,7.60
2023-01-15T18:19:59.439Z,7.60
2023-01-15T18:22:26.603Z,7.60
2023-01-15T18:24:53.538Z,7.60
2023-01-15T18:27:22.529Z,7.60
2023-01-15T18:29:50.023Z,7.60
2023-01-15T18:32:16.938Z,7.60
2023-01-15T18:34:43.999Z,7.70
2023-01-15T18:37:10.948Z,7.70
2023-01-15T18:39:37.861Z,7.70
2023-01-15T18:42:05.140Z,7.70
2023-01-15T18:44:50.645Z,7.60
2023-01-15T18:47:17.845Z,7.70
2023-01-15T18:49:45.413Z,7.70
2023-01-15T18:52:32.624Z,7.60
2023-01-15T18:54:59.563Z,7.60
2023-01-15T18:57:26.515Z,7.60
2023-01-15T18:59:53.396Z,7.60
2023-01-15T19:02:21.624Z,7.60
2023-01-15T19:04:48.903Z,7.60
2023-01-15T19:07:16.377Z,7.60
2023-01-15T19:09:43.325Z,7.60
2023-01-15T19:12:10.655Z,7.50
2023-01-15T19:14:55.942Z,7.50
2023-01-15T19:17:43.332Z,7.50
2023-01-15T19:20:11.501Z,7.50
2023-01-15T19:22:56.808Z,7.40
2023-01-15T19:25:24.143Z,7.40
2023-01-15T19:27:51.205Z,7.40
2023-01-15T19:30:18.447Z,7.40
2023-01-15T19:32:45.848Z,7.40
2023-01-15T19:35:12.836Z,7.40
2023-01-15T19:37:40.133Z,7.40
2023-01-15T19:40:08.785Z,7.50
2023-01-15T19:42:54.252Z,7.60
2023-01-15T19:45:39.552Z,7.60
2023-01-15T19:48:28.495Z,7.60
2023-01-15T19:50:55.839Z,7.60
2023-01-15T19:53:22.811Z,7.60
2023-01-15T19:55:50.455Z,7.60
2023-01-15T19:58:17.397Z,7.60
2023-01-15T20:00:45.275Z,7.60
2023-01-15T20:03:12.409Z,7.50
2023-01-15T20:05:40.066Z,7.60
2023-01-15T20:08:09.262Z,7.60
2023-01-15T20:10:38.686Z,7.60
2023-01-15T20:13:24.346Z,7.60
2023-01-15T20:15:51.406Z,7.60
2023-01-15T20:18:24.391Z,7.60
2023-01-15T20:20:54.297Z,7.60
2023-01-15T20:23:21.241Z,7.60
2023-01-15T20:25:52.896Z,7.60
2023-01-15T20:28:20.557Z,7.60
2023-01-15T20:30:47.650Z,7.60
2023-01-15T20:33:14.688Z,7.60
2023-01-15T20:35:41.605Z,7.60
2023-01-15T20:38:08.573Z,7.60
2023-01-15T20:40:35.508Z,7.60
2023-01-15T20:43:21.288Z,7.60
2023-01-15T20:45:48.361Z,7.60
2023-01-15T20:48:15.369Z,7.60
2023-01-15T20:51:01.976Z,7.60
2023-01-15T20:53:33.831Z,7.60
2023-01-15T20:56:01.487Z,7.60
2023-01-15T20:58:28.930Z,7.70
2023-01-15T21:01:02.056Z,7.70
2023-01-15T21:03:29.088Z,7.80
2023-01-15T21:05:59.029Z,7.70
2023-01-15T21:08:25.960Z,7.70
2023-01-15T21:10:53.514Z,7.70
2023-01-15T21:13:22.965Z,7.70
2023-01-15T21:16:08.121Z,7.70
2023-01-15T21:18:36.061Z,7.70
2023-01-15T21:21:13.837Z,7.70
2023-01-15T21:23:40.816Z,7.70
2023-01-15T21:26:07.761Z,7.60
2023-01-15T21:28:34.788Z,7.60
2023-01-15T21:31:04.281Z,7.70
2023-01-15T21:33:31.266Z,7.70
2023-01-15T21:35:58.179Z,7.70
2023-01-15T21:38:25.219Z,7.70
2023-01-15T21:40:52.152Z,7.70
2023-01-15T21:43:37.662Z,7.70
2023-01-15T21:46:05.592Z,7.70
2023-01-15T21:48:32.979Z,7.70
2023-01-15T21:51:03.732Z,7.70
2023-01-15T21:53:31.462Z,7.60
2023-01-15T21:55:58.413Z,7.60
2023-01-15T21:58:25.389Z,7.60
2023-01-15T22:00:52.314Z,7.60
2023-01-15T22:03:19.240Z,7.60
2023-01-15T22:05:49.261Z,7.50
2023-01-15T22:08:17.447Z,7.50
2023-01-15T22:10:44.469Z,7.50
2023-01-15T22:13:11.353Z,7.50
2023-01-15T22:15:38.278Z,7.40
2023-01-15T22:18:05.224Z,7.40
2023-01-15T22:20:32.045Z,7.40
2023-01-15T22:22:58.924Z,7.40
2023-01-15T22:25:25.854Z,7.40
2023-01-15T22:27:54.222Z,7.40
2023-01-15T22:30:21.278Z,7.30
2023-01-15T22:32:49.560Z,7.30
2023-01-15T22:35:18.266Z,7.30
2023-01-15T22:37:45.269Z,7.30
2023-01-15T22:40:12.417Z,7.20
2023-01-15T22:42:39.607Z,7.20
2023-01-15T22:45:06.720Z,7.20
2023-01-15T22:47:33.753Z,7.10
2023-01-15T22:50:00.652Z,7.10
2023-01-15T22:52:27.854Z,7.20
2023-01-15T22:54:54.799Z,7.20
2023-01-15T22:57:22.784Z,7.20
2023-01-15T22:59:52.894Z,7.20
2023-01-15T23:02:39.798Z,7.20
2023-01-15T23:05:06.948Z,7.20
2023-01-15T23:07:34.840Z,7.20
2023-01-15T23:10:01.796Z,7.20
2023-01-15T23:12:30.122Z,7.20
2023-01-15T23:14:57.078Z,7.20
2023-01-15T23:17:24.021Z,7.20
2023-01-15T23:19:51.074Z,7.20
2023-01-15T23:22:18.526Z,7.10
2023-01-15T23:24:45.469Z,7.10
2023-01-15T23:27:14.099Z,7.10
2023-01-15T23:29:41.097Z,7.10
2023-01-15T23:32:08.040Z,7.00
2023-01-15T23:34:35.003Z,7.00
2023-01-15T23:37:01.951Z,7.00
2023-01-15T23:39:28.802Z,7.00
2023-01-15T23:42:14.497Z,6.90
2023-01-15T23:44:59.840Z,6.90
2023-01-15T23:47:26.713Z,6.90
2023-01-15T23:49:53.916Z,6.90
2023-01-15T23:52:20.787Z,6.90
2023-01-15T23:54:47.814Z,6.80
2023-01-15T23:57:15.475Z,6.80
2023-01-15T23:59:44.056Z,6.80
